Time;durP1;ratioP1;P1;durP2;ratioP2;P2;SDS_P1;SDS_P2;PMS_P1;PMS_P2;Temp;Humidity;BMP_temperature;BMP_pressure;BME280_temperature;BME280_humidity;BME280_pressure;Samples;Min_cycle;Max_cycle;Signal;HPM_P1;HPM_P2
2023/12/19 00:01:53;;;;;;;14.57;10.02;;;;;;;;;;5086429;28;20055;-84
2023/12/19 00:04:19;;;;;;;14.02;9.57;;;;;;;;;;5083043;28;20048;-86
2023/12/19 00:06:46;;;;;;;14.68;9.18;;;;;;;;;;5072396;28;20421;-86
2023/12/19 00:09:13;;;;;;;11.60;8.52;;;;;;;;;;5083848;28;20517;-85
2023/12/19 00:11:39;;;;;;;13.38;9.27;;;;;;;;;;5089959;28;20044;-85
2023/12/19 00:14:07;;;;;;;13.85;9.43;;;;;;;;;;5073209;28;20052;-86
2023/12/19 00:16:33;;;;;;;12.25;8.73;;;;;;;;;;5074010;28;20518;-86
2023/12/19 00:19:00;;;;;;;13.07;8.85;;;;;;;;;;5091645;28;20151;-86
2023/12/19 00:21:27;;;;;;;14.95;9.50;;;;;;;;;;5089704;28;20111;-86
2023/12/19 00:23:53;;;;;;;14.35;9.02;;;;;;;;;;5091577;28;20079;-87
2023/12/19 00:26:21;;;;;;;12.57;8.40;;;;;;;;;;5072456;28;20139;-87
2023/12/19 00:28:48;;;;;;;11.32;8.45;;;;;;;;;;5074841;28;20044;-87
2023/12/19 00:31:21;;;;;;;11.13;8.52;;;;;;;;;;5089651;28;20111;-87
2023/12/19 00:33:48;;;;;;;11.75;8.13;;;;;;;;;;5087010;28;20055;-83
2023/12/19 00:36:21;;;;;;;13.60;9.18;;;;;;;;;;5087221;28;20075;-83
2023/12/19 00:38:49;;;;;;;12.73;8.68;;;;;;;;;;5071666;28;20044;-86
2023/12/19 00:41:16;;;;;;;11.63;7.82;;;;;;;;;;5089187;28;20715;-86
2023/12/19 00:43:42;;;;;;;16.50;9.45;;;;;;;;;;5055768;28;20076;-86
2023/12/19 00:46:09;;;;;;;10.38;8.18;;;;;;;;;;5072877;28;20140;-86
2023/12/19 00:48:36;;;;;;;12.43;8.48;;;;;;;;;;5063040;28;20160;-85
2023/12/19 00:51:03;;;;;;;14.40;8.73;;;;;;;;;;5056342;28;20044;-84
2023/12/19 00:53:30;;;;;;;12.45;9.07;;;;;;;;;;5067826;28;20507;-86
2023/12/19 00:55:56;;;;;;;11.80;8.40;;;;;;;;;;5094888;28;20115;-86
2023/12/19 00:58:23;;;;;;;13.80;8.90;;;;;;;;;;5075919;28;20134;-85
2023/12/19 01:00:49;;;;;;;13.18;8.65;;;;;;;;;;5077875;28;20070;-85
2023/12/19 01:03:16;;;;;;;11.38;7.97;;;;;;;;;;5071385;28;20044;-85
2023/12/19 01:05:43;;;;;;;11.40;7.97;;;;;;;;;;5095027;28;20103;-84
2023/12/19 01:08:10;;;;;;;10.73;8.30;;;;;;;;;;5093301;28;20354;-86
2023/12/19 01:10:36;;;;;;;12.30;8.40;;;;;;;;;;5075517;28;20049;-86
2023/12/19 01:13:03;;;;;;;10.40;7.60;;;;;;;;;;5093045;28;20152;-86
2023/12/19 01:15:29;;;;;;;12.50;8.77;;;;;;;;;;5090184;28;20116;-85
2023/12/19 01:17:56;;;;;;;12.32;8.27;;;;;;;;;;5075780;28;20055;-84
2023/12/19 01:20:23;;;;;;;10.63;8.45;;;;;;;;;;5072234;28;20053;-84
2023/12/19 01:22:49;;;;;;;11.25;8.73;;;;;;;;;;5065332;28;20045;-83
2023/12/19 01:25:16;;;;;;;13.35;8.70;;;;;;;;;;5060352;28;20147;-83
2023/12/19 01:27:42;;;;;;;12.25;9.07;;;;;;;;;;5089141;28;20105;-83
2023/12/19 01:30:09;;;;;;;11.63;8.13;;;;;;;;;;5083643;28;20072;-84
2023/12/19 01:32:36;;;;;;;11.40;7.85;;;;;;;;;;5072881;28;20053;-84
2023/12/19 01:35:03;;;;;;;9.88;7.93;;;;;;;;;;5090172;28;20498;-84
2023/12/19 01:37:29;;;;;;;11.98;7.72;;;;;;;;;;5072527;28;20079;-84
2023/12/19 01:39:56;;;;;;;10.80;7.45;;;;;;;;;;5078289;28;20136;-83
2023/12/19 01:42:23;;;;;;;10.32;7.82;;;;;;;;;;5065386;28;20059;-82
2023/12/19 01:45:00;;;;;;;13.20;8.38;;;;;;;;;;5088302;28;20085;-82
2023/12/19 01:47:27;;;;;;;11.35;7.07;;;;;;;;;;5069013;28;20046;-83
2023/12/19 01:49:54;;;;;;;10.07;7.65;;;;;;;;;;5085924;28;20044;-82
2023/12/19 01:52:20;;;;;;;9.35;7.43;;;;;;;;;;5084624;28;20048;-83
2023/12/19 01:54:47;;;;;;;11.63;8.38;;;;;;;;;;5082604;28;20055;-81
2023/12/19 01:57:14;;;;;;;12.00;8.02;;;;;;;;;;5068202;28;20052;-83
2023/12/19 01:59:41;;;;;;;10.85;7.47;;;;;;;;;;5061455;28;20048;-83
2023/12/19 02:02:07;;;;;;;11.85;8.02;;;;;;;;;;5061660;28;20448;-83
2023/12/19 02:04:34;;;;;;;10.98;7.72;;;;;;;;;;5063661;28;20139;-83
2023/12/19 02:07:00;;;;;;;12.40;7.75;;;;;;;;;;5066452;28;20074;-83
2023/12/19 02:09:27;;;;;;;11.20;7.18;;;;;;;;;;5087636;28;20056;-83
2023/12/19 02:11:54;;;;;;;10.57;7.68;;;;;;;;;;5065275;28;20105;-83
2023/12/19 02:14:20;;;;;;;10.38;7.70;;;;;;;;;;5065429;28;20052;-83
2023/12/19 02:16:47;;;;;;;9.95;7.88;;;;;;;;;;5073051;28;20079;-84
2023/12/19 02:19:13;;;;;;;10.35;8.07;;;;;;;;;;5082179;28;20076;-83
2023/12/19 02:21:40;;;;;;;10.65;8.35;;;;;;;;;;5062049;28;20076;-83
2023/12/19 02:24:07;;;;;;;12.10;8.13;;;;;;;;;;5074834;28;20052;-84
2023/12/19 02:26:34;;;;;;;11.50;8.60;;;;;;;;;;5084426;28;20070;-82
2023/12/19 02:29:00;;;;;;;11.48;7.50;;;;;;;;;;5081687;28;20048;-81
2023/12/19 02:31:27;;;;;;;11.52;7.57;;;;;;;;;;5081316;28;20048;-82
2023/12/19 02:33:53;;;;;;;11.70;8.00;;;;;;;;;;5084161;28;20127;-81
2023/12/19 02:36:20;;;;;;;12.75;8.23;;;;;;;;;;5074094;28;20048;-81
2023/12/19 02:38:47;;;;;;;10.40;7.32;;;;;;;;;;5078676;28;20063;-81
2023/12/19 02:41:13;;;;;;;9.38;7.43;;;;;;;;;;5066014;28;20082;-83
2023/12/19 02:43:40;;;;;;;12.68;7.55;;;;;;;;;;5058998;28;20621;-83
2023/12/19 02:46:20;;;;;;;12.02;7.90;;;;;;;;;;5089063;28;20135;-83
2023/12/19 02:48:47;;;;;;;14.13;7.95;;;;;;;;;;5079279;28;20067;-83
2023/12/19 02:51:14;;;;;;;10.75;7.63;;;;;;;;;;5078186;28;20081;-83
2023/12/19 02:53:40;;;;;;;9.57;8.05;;;;;;;;;;5066161;28;20040;-83
2023/12/19 02:56:07;;;;;;;10.18;7.88;;;;;;;;;;5079428;28;20068;-83
2023/12/19 02:58:34;;;;;;;12.07;7.75;;;;;;;;;;5069282;28;20048;-83
2023/12/19 03:01:00;;;;;;;11.65;7.80;;;;;;;;;;5093136;28;20068;-84
2023/12/19 03:03:29;;;;;;;16.63;8.23;;;;;;;;;;5067690;28;20059;-84
2023/12/19 03:05:56;;;;;;;13.50;8.55;;;;;;;;;;5081845;28;20516;-83
2023/12/19 03:08:23;;;;;;;11.18;7.25;;;;;;;;;;5093616;28;20049;-83
2023/12/19 03:10:49;;;;;;;13.90;7.80;;;;;;;;;;5060274;28;20076;-84
2023/12/19 03:13:16;;;;;;;11.35;7.93;;;;;;;;;;5057823;28;20052;-84
2023/12/19 03:15:42;;;;;;;13.65;7.80;;;;;;;;;;5065647;28;20062;-84
2023/12/19 03:18:09;;;;;;;11.57;7.40;;;;;;;;;;5049793;28;20056;-84
2023/12/19 03:20:36;;;;;;;9.43;6.93;;;;;;;;;;5080640;28;20053;-82
2023/12/19 03:23:02;;;;;;;12.07;7.35;;;;;;;;;;5088247;28;20142;-85
2023/12/19 03:25:29;;;;;;;9.15;6.38;;;;;;;;;;5083828;28;20425;-85
2023/12/19 03:27:55;;;;;;;9.43;7.00;;;;;;;;;;5065436;28;20111;-86
2023/12/19 03:30:22;;;;;;;10.18;7.50;;;;;;;;;;5086704;28;20113;-85
2023/12/19 03:32:49;;;;;;;10.50;7.35;;;;;;;;;;5083517;28;20494;-82
2023/12/19 03:35:15;;;;;;;11.15;7.63;;;;;;;;;;5093128;28;20056;-81
2023/12/19 03:37:42;;;;;;;9.63;6.90;;;;;;;;;;5092141;28;20056;-82
2023/12/19 03:40:09;;;;;;;9.60;7.10;;;;;;;;;;5070409;28;20144;-84
2023/12/19 03:42:36;;;;;;;9.38;7.18;;;;;;;;;;5070205;28;20061;-84
2023/12/19 03:45:05;;;;;;;11.50;7.63;;;;;;;;;;5085319;28;20087;-84
2023/12/19 03:47:32;;;;;;;9.63;7.47;;;;;;;;;;5055317;28;20497;-85
2023/12/19 03:49:59;;;;;;;8.60;7.10;;;;;;;;;;5064937;28;20114;-84
2023/12/19 03:52:26;;;;;;;8.25;6.78;;;;;;;;;;5066199;28;20087;-84
2023/12/19 03:54:53;;;;;;;9.63;7.38;;;;;;;;;;5065224;28;20578;-83
2023/12/19 03:57:19;;;;;;;8.73;6.63;;;;;;;;;;5087881;28;20048;-83
2023/12/19 03:59:46;;;;;;;9.10;7.10;;;;;;;;;;5085768;28;20052;-83
2023/12/19 04:02:12;;;;;;;8.48;7.35;;;;;;;;;;5086145;28;20048;-83
2023/12/19 04:04:39;;;;;;;7.35;6.43;;;;;;;;;;5076424;28;20577;-83
2023/12/19 04:07:05;;;;;;;8.88;7.03;;;;;;;;;;5090602;28;20059;-83
2023/12/19 04:09:33;;;;;;;9.82;7.70;;;;;;;;;;5078616;28;21279;-83
2023/12/19 04:12:03;;;;;;;11.73;7.55;;;;;;;;;;5065511;28;20497;-83
2023/12/19 04:14:30;;;;;;;13.32;7.72;;;;;;;;;;5075659;28;20547;-84
2023/12/19 04:16:57;;;;;;;11.02;8.02;;;;;;;;;;5086619;28;20055;-83
2023/12/19 04:19:24;;;;;;;11.27;7.30;;;;;;;;;;5074132;28;20084;-84
2023/12/19 04:21:50;;;;;;;11.05;7.88;;;;;;;;;;5064655;28;20460;-84
2023/12/19 04:24:17;;;;;;;10.80;8.30;;;;;;;;;;5066531;28;20045;-84
2023/12/19 04:26:46;;;;;;;12.88;8.68;;;;;;;;;;5079675;28;20052;-84
2023/12/19 04:29:13;;;;;;;9.50;7.40;;;;;;;;;;5089041;28;20504;-83
2023/12/19 04:31:40;;;;;;;10.13;7.18;;;;;;;;;;5082929;28;20108;-83
2023/12/19 04:34:07;;;;;;;12.63;8.57;;;;;;;;;;5073291;28;20055;-81
2023/12/19 04:36:33;;;;;;;9.02;6.93;;;;;;;;;;5059870;28;20040;-82
2023/12/19 04:39:00;;;;;;;11.95;7.35;;;;;;;;;;5102652;28;20048;-82
2023/12/19 04:41:27;;;;;;;9.45;6.90;;;;;;;;;;5082714;28;20084;-81
2023/12/19 04:43:53;;;;;;;8.73;6.50;;;;;;;;;;5080904;28;20486;-81
2023/12/19 04:46:20;;;;;;;10.32;6.45;;;;;;;;;;5068176;28;20468;-82
2023/12/19 04:48:47;;;;;;;8.55;6.78;;;;;;;;;;5085363;28;20112;-82
2023/12/19 04:51:18;;;;;;;9.10;6.97;;;;;;;;;;5068163;28;20052;-83
2023/12/19 04:53:45;;;;;;;8.45;6.60;;;;;;;;;;5069286;28;20410;-83
2023/12/19 04:56:12;;;;;;;8.65;7.05;;;;;;;;;;5069455;28;20140;-84
2023/12/19 04:58:43;;;;;;;10.27;6.70;;;;;;;;;;5066607;28;20135;-84
2023/12/19 05:01:09;;;;;;;8.65;6.03;;;;;;;;;;5059281;28;20059;-84
2023/12/19 05:03:37;;;;;;;11.73;7.13;;;;;;;;;;5057637;28;20231;-85
2023/12/19 05:06:05;;;;;;;10.75;7.53;;;;;;;;;;5082101;28;20062;-84
2023/12/19 05:08:31;;;;;;;10.38;7.93;;;;;;;;;;5084484;28;20101;-85
2023/12/19 05:10:58;;;;;;;10.00;7.78;;;;;;;;;;5083460;28;20094;-84
2023/12/19 05:13:26;;;;;;;14.43;8.77;;;;;;;;;;5066951;28;20091;-84
2023/12/19 05:15:52;;;;;;;10.38;7.03;;;;;;;;;;5056391;28;20087;-83
2023/12/19 05:18:19;;;;;;;10.32;8.20;;;;;;;;;;5084476;28;20047;-81
2023/12/19 05:20:47;;;;;;;10.93;7.93;;;;;;;;;;5086386;28;20062;-82
2023/12/19 05:23:13;;;;;;;10.15;7.43;;;;;;;;;;5083900;28;20053;-81
2023/12/19 05:25:43;;;;;;;10.82;7.57;;;;;;;;;;5063856;28;20055;-82
2023/12/19 05:28:10;;;;;;;11.02;7.85;;;;;;;;;;5083575;28;20044;-82
2023/12/19 05:30:36;;;;;;;10.80;7.45;;;;;;;;;;5087009;28;20056;-82
2023/12/19 05:33:03;;;;;;;10.23;7.38;;;;;;;;;;5084415;28;20056;-81
2023/12/19 05:35:30;;;;;;;12.70;7.80;;;;;;;;;;5074447;28;20055;-81
2023/12/19 05:37:57;;;;;;;11.05;7.70;;;;;;;;;;5062787;28;20052;-81
2023/12/19 05:40:24;;;;;;;10.38;7.07;;;;;;;;;;5085029;28;20494;-81
2023/12/19 05:42:56;;;;;;;10.43;7.53;;;;;;;;;;5069998;28;20527;-81
2023/12/19 05:45:22;;;;;;;11.95;7.32;;;;;;;;;;5066243;28;20052;-81
2023/12/19 05:47:49;;;;;;;11.15;7.88;;;;;;;;;;5085363;28;20045;-84
2023/12/19 05:50:16;;;;;;;12.57;8.55;;;;;;;;;;5072835;28;20135;-83
2023/12/19 05:52:42;;;;;;;11.77;7.90;;;;;;;;;;5040285;28;20108;-84
2023/12/19 05:55:09;;;;;;;12.70;8.18;;;;;;;;;;5087685;28;20503;-81
2023/12/19 05:57:39;;;;;;;11.75;7.63;;;;;;;;;;5074876;28;20439;-83
2023/12/19 06:00:06;;;;;;;12.30;8.50;;;;;;;;;;5065332;28;20060;-83
2023/12/19 06:02:36;;;;;;;11.90;8.90;;;;;;;;;;5082838;28;20048;-83
2023/12/19 06:05:09;;;;;;;11.55;8.80;;;;;;;;;;5069763;28;20131;-83
2023/12/19 06:07:40;;;;;;;12.40;8.18;;;;;;;;;;5075771;28;20110;-84
2023/12/19 06:10:10;;;;;;;11.48;7.47;;;;;;;;;;5061345;28;20107;-83
2023/12/19 06:12:38;;;;;;;12.23;8.43;;;;;;;;;;5062600;28;20086;-84
2023/12/19 06:15:08;;;;;;;13.77;9.13;;;;;;;;;;5071671;28;20044;-83
2023/12/19 06:17:35;;;;;;;11.75;8.70;;;;;;;;;;5068078;28;20053;-82
2023/12/19 06:20:01;;;;;;;12.82;8.35;;;;;;;;;;5085936;28;20056;-83
2023/12/19 06:22:28;;;;;;;12.65;8.32;;;;;;;;;;5093425;28;20063;-82
2023/12/19 06:24:55;;;;;;;12.70;8.27;;;;;;;;;;5074999;28;20059;-83
2023/12/19 06:27:21;;;;;;;11.27;7.78;;;;;;;;;;5070148;28;20051;-83
2023/12/19 06:29:48;;;;;;;14.88;7.88;;;;;;;;;;5085798;28;20052;-82
2023/12/19 06:32:15;;;;;;;13.23;8.65;;;;;;;;;;5069566;28;20462;-82
2023/12/19 06:34:41;;;;;;;13.32;7.82;;;;;;;;;;5069140;28;20057;-82
2023/12/19 06:37:08;;;;;;;16.38;10.30;;;;;;;;;;5068960;28;20123;-86
2023/12/19 06:39:36;;;;;;;16.42;9.80;;;;;;;;;;5079888;28;20048;-84
2023/12/19 06:42:03;;;;;;;14.40;9.48;;;;;;;;;;5077375;28;20052;-85
2023/12/19 06:44:29;;;;;;;16.85;9.38;;;;;;;;;;5076373;28;20104;-83
2023/12/19 06:46:56;;;;;;;14.30;9.10;;;;;;;;;;5057707;28;20086;-80
2023/12/19 06:49:24;;;;;;;12.52;8.48;;;;;;;;;;5058247;28;20048;-80
2023/12/19 06:51:52;;;;;;;13.45;9.35;;;;;;;;;;5057957;28;20818;-80
2023/12/19 06:54:19;;;;;;;12.98;8.50;;;;;;;;;;5057818;28;20106;-80
2023/12/19 06:56:45;;;;;;;15.18;9.65;;;;;;;;;;5054383;28;20075;-81
2023/12/19 06:59:13;;;;;;;14.02;8.75;;;;;;;;;;5049521;28;20091;-80
2023/12/19 07:01:39;;;;;;;12.52;9.25;;;;;;;;;;5056771;28;20140;-81
2023/12/19 07:04:06;;;;;;;14.70;8.85;;;;;;;;;;5055369;28;20052;-80
2023/12/19 07:06:33;;;;;;;14.73;9.48;;;;;;;;;;5057495;28;20048;-80
2023/12/19 07:09:00;;;;;;;12.88;9.07;;;;;;;;;;5058524;28;20091;-80
2023/12/19 07:11:26;;;;;;;13.95;10.00;;;;;;;;;;5072981;28;20143;-80
2023/12/19 07:13:53;;;;;;;16.20;10.57;;;;;;;;;;5058472;28;20048;-80
2023/12/19 07:16:21;;;;;;;20.30;12.02;;;;;;;;;;5074122;28;20084;-80
2023/12/19 07:18:49;;;;;;;14.65;11.68;;;;;;;;;;5057476;28;20056;-80
2023/12/19 07:21:24;;;;;;;18.25;11.40;;;;;;;;;;5073334;28;20064;-79
2023/12/19 07:23:52;;;;;;;19.90;11.30;;;;;;;;;;5057782;28;20059;-81
2023/12/19 07:26:29;;;;;;;18.95;11.60;;;;;;;;;;5072934;28;20536;-80
2023/12/19 07:28:59;;;;;;;17.60;10.98;;;;;;;;;;5056963;28;20049;-80
2023/12/19 07:31:27;;;;;;;21.92;11.07;;;;;;;;;;5057975;28;20045;-80
2023/12/19 07:34:06;;;;;;;18.42;11.48;;;;;;;;;;5074216;28;20059;-80
2023/12/19 07:36:33;;;;;;;16.35;10.82;;;;;;;;;;5057775;28;20049;-80
2023/12/19 07:39:00;;;;;;;15.27;10.13;;;;;;;;;;5060667;28;20490;-80
2023/12/19 07:41:27;;;;;;;17.70;10.82;;;;;;;;;;5059131;28;20088;-82
2023/12/19 07:43:54;;;;;;;14.95;10.15;;;;;;;;;;5058341;28;20060;-83
2023/12/19 07:46:21;;;;;;;21.35;12.80;;;;;;;;;;5073535;28;20114;-81
2023/12/19 07:48:48;;;;;;;19.98;11.52;;;;;;;;;;5055806;28;20048;-79
2023/12/19 07:51:15;;;;;;;22.23;12.80;;;;;;;;;;5054560;28;20044;-78
2023/12/19 07:53:42;;;;;;;25.85;14.65;;;;;;;;;;5055152;28;20449;-80
2023/12/19 07:56:09;;;;;;;20.50;13.35;;;;;;;;;;5056891;28;20076;-80
2023/12/19 07:58:36;;;;;;;19.02;12.45;;;;;;;;;;5066360;28;20116;-81
2023/12/19 08:01:02;;;;;;;20.10;12.35;;;;;;;;;;5081189;28;20482;-80
2023/12/19 08:03:30;;;;;;;20.92;12.60;;;;;;;;;;5074554;28;20053;-78
2023/12/19 08:05:56;;;;;;;23.38;13.13;;;;;;;;;;5067263;28;20465;-80
2023/12/19 08:08:26;;;;;;;23.23;12.93;;;;;;;;;;5060892;28;20128;-79
2023/12/19 08:10:52;;;;;;;20.83;12.95;;;;;;;;;;5077616;28;20135;-79
2023/12/19 08:13:22;;;;;;;24.95;12.85;;;;;;;;;;5061017;28;20170;-79
2023/12/19 08:15:50;;;;;;;21.73;12.50;;;;;;;;;;5081938;28;20062;-80
2023/12/19 08:18:17;;;;;;;15.13;11.38;;;;;;;;;;5065250;28;20056;-79
2023/12/19 08:20:44;;;;;;;17.08;11.00;;;;;;;;;;5061793;28;20053;-79
2023/12/19 08:23:11;;;;;;;16.42;11.40;;;;;;;;;;5079878;28;20056;-80
2023/12/19 08:25:38;;;;;;;18.30;11.15;;;;;;;;;;5065990;28;20139;-78
2023/12/19 08:28:07;;;;;;;15.82;10.70;;;;;;;;;;5084014;28;20056;-79
2023/12/19 08:30:33;;;;;;;15.60;10.60;;;;;;;;;;5064609;28;20128;-79
2023/12/19 08:33:01;;;;;;;15.75;10.27;;;;;;;;;;5078738;28;20044;-79
2023/12/19 08:35:29;;;;;;;18.45;11.38;;;;;;;;;;5082211;28;20105;-78
2023/12/19 08:37:56;;;;;;;14.32;10.20;;;;;;;;;;5084248;28;20086;-79
2023/12/19 08:40:22;;;;;;;17.70;10.93;;;;;;;;;;5081441;28;20098;-79
2023/12/19 08:42:49;;;;;;;16.33;10.32;;;;;;;;;;5082008;28;20138;-78
2023/12/19 08:45:19;;;;;;;18.98;10.57;;;;;;;;;;5062611;28;20063;-81
2023/12/19 08:47:46;;;;;;;18.15;11.38;;;;;;;;;;5056857;28;20087;-79
2023/12/19 08:50:13;;;;;;;22.15;12.85;;;;;;;;;;5065447;28;20475;-79
2023/12/19 08:52:41;;;;;;;20.48;12.25;;;;;;;;;;5076502;28;20076;-80
2023/12/19 08:55:08;;;;;;;19.13;11.98;;;;;;;;;;5058998;28;20129;-84
2023/12/19 08:57:38;;;;;;;18.80;11.45;;;;;;;;;;5078756;28;20048;-84
2023/12/19 09:00:04;;;;;;;24.08;13.13;;;;;;;;;;5076276;28;20047;-79
2023/12/19 09:02:31;;;;;;;19.70;12.20;;;;;;;;;;5077629;28;20127;-79
2023/12/19 09:04:58;;;;;;;19.40;12.85;;;;;;;;;;5069041;28;20045;-80
2023/12/19 09:07:25;;;;;;;18.17;10.68;;;;;;;;;;5075555;28;20095;-79
2023/12/19 09:09:54;;;;;;;16.67;10.77;;;;;;;;;;5059779;28;20060;-80
2023/12/19 09:12:22;;;;;;;18.98;12.35;;;;;;;;;;5075680;28;20757;-79
2023/12/19 09:14:49;;;;;;;18.88;11.63;;;;;;;;;;5074917;28;20083;-80
2023/12/19 09:17:16;;;;;;;20.08;11.98;;;;;;;;;;5077947;28;20417;-80
2023/12/19 09:19:43;;;;;;;16.77;12.00;;;;;;;;;;5077903;28;20058;-80
2023/12/19 09:22:10;;;;;;;18.50;10.70;;;;;;;;;;5083303;28;20122;-80
2023/12/19 09:24:37;;;;;;;16.27;10.43;;;;;;;;;;5063264;28;20609;-80
2023/12/19 09:27:04;;;;;;;16.50;10.63;;;;;;;;;;5073393;28;20050;-81
2023/12/19 09:29:32;;;;;;;13.68;10.13;;;;;;;;;;5079353;28;20627;-81
2023/12/19 09:32:01;;;;;;;18.35;12.15;;;;;;;;;;5064910;28;20048;-81
2023/12/19 09:34:28;;;;;;;13.88;10.38;;;;;;;;;;5078517;28;20049;-83
2023/12/19 09:36:54;;;;;;;16.73;10.55;;;;;;;;;;5061109;28;20048;-82
2023/12/19 09:39:23;;;;;;;17.15;10.27;;;;;;;;;;5074865;28;20106;-83
2023/12/19 09:41:50;;;;;;;13.75;9.63;;;;;;;;;;5059638;28;20088;-80
2023/12/19 09:44:17;;;;;;;14.20;8.68;;;;;;;;;;5076046;28;20579;-80
2023/12/19 09:46:52;;;;;;;14.63;9.00;;;;;;;;;;5074530;28;20139;-80
2023/12/19 09:49:20;;;;;;;13.85;8.98;;;;;;;;;;5060149;28;20063;-80
2023/12/19 09:51:47;;;;;;;15.85;10.02;;;;;;;;;;5079889;28;20135;-81
2023/12/19 09:54:13;;;;;;;12.90;8.18;;;;;;;;;;5063874;28;20044;-80
2023/12/19 09:56:40;;;;;;;15.77;10.15;;;;;;;;;;5062483;28;20072;-80
2023/12/19 09:59:07;;;;;;;14.52;9.70;;;;;;;;;;5077089;28;20060;-80
2023/12/19 10:01:36;;;;;;;16.55;10.18;;;;;;;;;;5078299;28;20053;-80
2023/12/19 10:04:08;;;;;;;16.83;10.35;;;;;;;;;;5079634;28;20106;-80
2023/12/19 10:06:35;;;;;;;21.13;10.70;;;;;;;;;;5060325;28;20087;-80
2023/12/19 10:09:17;;;;;;;15.68;10.90;;;;;;;;;;5062436;28;20054;-80
2023/12/19 10:11:44;;;;;;;14.77;9.43;;;;;;;;;;5059524;28;20115;-79
2023/12/19 10:14:11;;;;;;;13.90;10.27;;;;;;;;;;5057115;28;20048;-81
2023/12/19 10:16:40;;;;;;;14.10;9.43;;;;;;;;;;5058541;28;20047;-79
2023/12/19 10:19:07;;;;;;;15.18;9.65;;;;;;;;;;5081413;28;20116;-81
2023/12/19 10:21:36;;;;;;;14.45;9.27;;;;;;;;;;5063338;28;20080;-80
2023/12/19 10:24:11;;;;;;;14.27;9.45;;;;;;;;;;5075454;28;20053;-82
2023/12/19 10:26:38;;;;;;;12.68;9.23;;;;;;;;;;5093649;28;20078;-79
2023/12/19 10:29:05;;;;;;;16.60;10.85;;;;;;;;;;5081150;28;20079;-82
2023/12/19 10:31:32;;;;;;;17.95;11.23;;;;;;;;;;5081310;28;20049;-80
2023/12/19 10:33:59;;;;;;;18.98;11.20;;;;;;;;;;5079837;28;20048;-81
2023/12/19 10:36:30;;;;;;;17.90;10.48;;;;;;;;;;5059736;28;20063;-80
2023/12/19 10:38:58;;;;;;;16.10;9.98;;;;;;;;;;5073538;28;20460;-80
2023/12/19 10:41:25;;;;;;;16.05;10.00;;;;;;;;;;5056332;28;20100;-80
2023/12/19 10:43:53;;;;;;;15.85;9.90;;;;;;;;;;5074234;28;20219;-81
2023/12/19 10:46:24;;;;;;;15.73;8.85;;;;;;;;;;5071751;28;20092;-80
2023/12/19 10:48:54;;;;;;;17.48;10.10;;;;;;;;;;5076649;28;20624;-79
2023/12/19 10:51:24;;;;;;;15.10;9.63;;;;;;;;;;5077932;28;20092;-79
2023/12/19 10:53:58;;;;;;;14.43;9.55;;;;;;;;;;5056374;28;20506;-79
2023/12/19 10:56:28;;;;;;;15.70;8.77;;;;;;;;;;5070654;28;20044;-81
2023/12/19 10:58:58;;;;;;;12.45;7.95;;;;;;;;;;5073048;28;21016;-81
2023/12/19 11:01:26;;;;;;;14.60;8.57;;;;;;;;;;5073031;28;20074;-80
2023/12/19 11:03:54;;;;;;;17.13;8.50;;;;;;;;;;5075207;28;20055;-81
2023/12/19 11:06:22;;;;;;;12.85;7.82;;;;;;;;;;5072187;28;20057;-82
2023/12/19 11:08:49;;;;;;;12.57;8.52;;;;;;;;;;5072908;28;20044;-82
2023/12/19 11:11:16;;;;;;;14.18;8.18;;;;;;;;;;5058732;28;20049;-82
2023/12/19 11:13:44;;;;;;;15.50;9.10;;;;;;;;;;5073442;28;20052;-83
2023/12/19 11:16:27;;;;;;;16.38;9.13;;;;;;;;;;5074315;28;20510;-81
2023/12/19 11:18:54;;;;;;;;;;;;;;;;;;5065475;28;20502;-82
2023/12/19 11:21:23;;;;;;;12.63;7.90;;;;;;;;;;5073198;28;19924;-81
2023/12/19 11:23:59;;;;;;;13.38;8.00;;;;;;;;;;5051551;28;20110;-82
2023/12/19 11:26:29;;;;;;;11.80;7.65;;;;;;;;;;5052992;28;20040;-83
2023/12/19 11:28:56;;;;;;;13.07;7.05;;;;;;;;;;5066886;28;20499;-81
2023/12/19 11:31:27;;;;;;;12.15;7.07;;;;;;;;;;5064708;28;20049;-81
2023/12/19 11:33:55;;;;;;;11.15;7.90;;;;;;;;;;5049424;28;20574;-82
2023/12/19 11:36:22;;;;;;;13.38;8.32;;;;;;;;;;5071005;28;20040;-81
2023/12/19 11:38:49;;;;;;;11.40;7.32;;;;;;;;;;5059990;28;20067;-80
2023/12/19 11:41:36;;;;;;;11.98;7.68;;;;;;;;;;5080834;28;20055;-80
2023/12/19 11:44:03;;;;;;;11.85;7.78;;;;;;;;;;5076005;28;20123;-80
2023/12/19 11:46:30;;;;;;;13.88;8.43;;;;;;;;;;5073969;28;20055;-80
2023/12/19 11:48:57;;;;;;;12.88;8.32;;;;;;;;;;5054742;28;20044;-81
2023/12/19 11:51:42;;;;;;;11.50;7.43;;;;;;;;;;5073819;28;20068;-80
2023/12/19 11:54:15;;;;;;;14.00;7.80;;;;;;;;;;5078181;28;20070;-81
2023/12/19 11:56:44;;;;;;;11.43;8.40;;;;;;;;;;5067675;28;20473;-81
2023/12/19 11:59:11;;;;;;;12.32;7.30;;;;;;;;;;5056996;28;20056;-79
2023/12/19 12:01:39;;;;;;;12.73;7.72;;;;;;;;;;5078314;28;20044;-81
2023/12/19 12:04:08;;;;;;;10.20;7.18;;;;;;;;;;5058211;28;20468;-81
2023/12/19 12:06:38;;;;;;;9.98;7.10;;;;;;;;;;5076023;28;20048;-81
2023/12/19 12:09:05;;;;;;;9.23;6.75;;;;;;;;;;5076157;28;20056;-82
2023/12/19 12:11:48;;;;;;;9.75;6.18;;;;;;;;;;5060220;28;20048;-81
2023/12/19 12:14:15;;;;;;;10.57;6.72;;;;;;;;;;5059354;28;20484;-82
2023/12/19 12:16:42;;;;;;;9.38;6.20;;;;;;;;;;5060561;28;20052;-81
2023/12/19 12:19:10;;;;;;;10.57;6.47;;;;;;;;;;5075360;28;20059;-81
2023/12/19 12:21:47;;;;;;;10.25;6.72;;;;;;;;;;5090109;28;20114;-81
2023/12/19 12:24:24;;;;;;;8.82;5.85;;;;;;;;;;5061750;28;20497;-81
2023/12/19 12:27:11;;;;;;;9.52;6.25;;;;;;;;;;5085552;28;20521;-81
2023/12/19 12:29:38;;;;;;;10.02;6.88;;;;;;;;;;5084764;28;20043;-81
2023/12/19 12:32:05;;;;;;;9.48;6.90;;;;;;;;;;5075556;28;20052;-81
2023/12/19 12:34:32;;;;;;;9.27;6.32;;;;;;;;;;5074503;28;20468;-82
2023/12/19 12:37:00;;;;;;;10.20;6.95;;;;;;;;;;5058859;28;20044;-81
2023/12/19 12:39:27;;;;;;;10.43;6.65;;;;;;;;;;5071803;28;20103;-81
2023/12/19 12:42:04;;;;;;;9.25;6.38;;;;;;;;;;5079695;28;20118;-81
2023/12/19 12:44:31;;;;;;;11.18;6.57;;;;;;;;;;5077773;28;20083;-81
2023/12/19 12:46:58;;;;;;;9.43;6.30;;;;;;;;;;5079197;28;20052;-82
2023/12/19 12:49:25;;;;;;;9.50;6.68;;;;;;;;;;5060438;28;20057;-82
2023/12/19 12:51:55;;;;;;;10.25;6.32;;;;;;;;;;5065428;28;20100;-81
2023/12/19 12:54:22;;;;;;;13.88;6.45;;;;;;;;;;5074837;28;20084;-81
2023/12/19 12:56:49;;;;;;;10.30;6.45;;;;;;;;;;5084216;28;20044;-82
2023/12/19 12:59:17;;;;;;;8.90;6.47;;;;;;;;;;5079778;28;20120;-82
2023/12/19 13:01:47;;;;;;;9.75;6.60;;;;;;;;;;5082087;28;20052;-81
2023/12/19 13:04:14;;;;;;;10.30;6.82;;;;;;;;;;5081895;28;20055;-81
2023/12/19 13:06:46;;;;;;;10.65;6.45;;;;;;;;;;5063108;28;20048;-81
2023/12/19 13:09:14;;;;;;;9.00;6.15;;;;;;;;;;5063671;28;20079;-80
2023/12/19 13:11:41;;;;;;;9.30;6.47;;;;;;;;;;5079721;28;20589;-81
2023/12/19 13:14:08;;;;;;;8.43;6.13;;;;;;;;;;5066916;28;20087;-81
2023/12/19 13:16:34;;;;;;;11.70;6.97;;;;;;;;;;5065786;28;20406;-81
2023/12/19 13:19:01;;;;;;;8.55;6.20;;;;;;;;;;5081922;28;20075;-81
2023/12/19 13:21:28;;;;;;;10.40;6.85;;;;;;;;;;5088670;28;20479;-81
2023/12/19 13:23:54;;;;;;;10.05;6.95;;;;;;;;;;5080937;28;20044;-81
2023/12/19 13:26:21;;;;;;;10.27;6.70;;;;;;;;;;5080572;28;20052;-81
2023/12/19 13:28:49;;;;;;;11.60;7.47;;;;;;;;;;5080309;28;20040;-81
2023/12/19 13:31:15;;;;;;;10.20;7.32;;;;;;;;;;5082037;28;20116;-81
2023/12/19 13:33:43;;;;;;;11.68;6.63;;;;;;;;;;5079584;28;20078;-81
2023/12/19 13:36:15;;;;;;;12.48;6.20;;;;;;;;;;5078693;28;20426;-81
2023/12/19 13:38:43;;;;;;;8.43;5.70;;;;;;;;;;5079845;28;20048;-81
2023/12/19 13:41:11;;;;;;;7.03;5.28;;;;;;;;;;5078820;28;20102;-82
2023/12/19 13:43:38;;;;;;;11.15;7.03;;;;;;;;;;5080176;28;20064;-81
2023/12/19 13:46:04;;;;;;;10.43;6.22;;;;;;;;;;5081834;28;20135;-81
2023/12/19 13:48:31;;;;;;;9.20;6.50;;;;;;;;;;5076095;28;20056;-81
2023/12/19 13:50:58;;;;;;;9.13;6.68;;;;;;;;;;5059774;28;20043;-81
2023/12/19 13:53:25;;;;;;;8.60;6.25;;;;;;;;;;5081018;28;20108;-81
2023/12/19 13:55:51;;;;;;;9.25;6.40;;;;;;;;;;5079833;28;20044;-82
2023/12/19 13:58:18;;;;;;;7.63;5.78;;;;;;;;;;5082428;28;20052;-82
2023/12/19 14:00:45;;;;;;;8.55;5.60;;;;;;;;;;5093600;28;20048;-81
2023/12/19 14:03:13;;;;;;;8.52;5.82;;;;;;;;;;5074168;28;20056;-81
2023/12/19 14:05:40;;;;;;;9.23;6.18;;;;;;;;;;5087849;28;20048;-82
2023/12/19 14:08:07;;;;;;;10.82;6.75;;;;;;;;;;5072789;28;20083;-82
2023/12/19 14:10:34;;;;;;;10.32;6.80;;;;;;;;;;5084673;28;20123;-82
2023/12/19 14:13:00;;;;;;;10.10;6.85;;;;;;;;;;5079553;28;20078;-82
2023/12/19 14:15:28;;;;;;;8.13;6.07;;;;;;;;;;5085736;28;20048;-82
2023/12/19 14:17:55;;;;;;;8.18;5.97;;;;;;;;;;5059110;28;20079;-82
2023/12/19 14:20:21;;;;;;;9.95;6.28;;;;;;;;;;5074663;28;20414;-83
2023/12/19 14:22:48;;;;;;;10.40;6.22;;;;;;;;;;5077712;28;20051;-82
2023/12/19 14:25:15;;;;;;;12.80;6.30;;;;;;;;;;5074374;28;20147;-82
2023/12/19 14:27:41;;;;;;;10.27;6.47;;;;;;;;;;5075132;28;20049;-82
2023/12/19 14:30:09;;;;;;;9.52;6.40;;;;;;;;;;5074104;28;20052;-82
2023/12/19 14:32:36;;;;;;;10.68;5.90;;;;;;;;;;5072714;28;20048;-82